Time;durP1;ratioP1;P1;durP2;ratioP2;P2;SDS_P1;SDS_P2;PMS_P1;PMS_P2;Temp;Humidity;BMP_temperature;BMP_pressure;BME280_temperature;BME280_humidity;BME280_pressure;Samples;Min_cycle;Max_cycle;Signal;HPM_P1;HPM_P2
2024/03/02 00:00:50;;;;;;;27.47;14.90;;;;;;;5.33;81.32;96069.50;5051206;28;20225;-87
2024/03/02 00:03:17;;;;;;;21.87;14.80;;;;;;;5.48;80.59;96081.91;5053142;28;20233;-87
2024/03/02 00:05:45;;;;;;;20.57;14.70;;;;;;;5.54;79.17;96067.66;5051926;28;20197;-88
2024/03/02 00:08:20;;;;;;;22.43;15.87;;;;;;;5.41;80.03;96068.19;5052252;28;20209;-87
2024/03/02 00:10:47;;;;;;;16.67;11.97;;;;;;;5.22;81.11;96043.38;5050300;28;20228;-89
2024/03/02 00:13:14;;;;;;;15.60;12.33;;;;;;;4.96;82.17;96018.88;5051529;28;20216;-90
2024/03/02 00:15:43;;;;;;;24.07;14.57;;;;;;;5.03;82.48;96040.47;5055952;28;20229;-90
2024/03/02 00:18:12;;;;;;;20.57;13.30;;;;;;;5.25;83.15;96069.25;5055418;28;20201;-89
2024/03/02 00:20:40;;;;;;;21.87;13.03;;;;;;;5.33;83.73;96071.34;5036322;28;20252;-89
2024/03/02 00:29:05;;;;;;;27.00;14.07;;;;;;;5.42;85.11;96075.06;5004828;28;20210;-89
2024/03/02 00:31:33;;;;;;;25.00;13.87;;;;;;;5.09;85.02;96013.84;5015552;28;20203;-88
2024/03/02 00:34:04;;;;;;;27.73;14.70;;;;;;;5.30;85.66;96038.34;5015884;28;20662;-88
2024/03/02 00:36:31;;;;;;;56.67;31.53;;;;;;;5.31;85.72;96044.47;5016383;28;20207;-89
2024/03/02 00:38:58;;;;;;;24.60;15.87;;;;;;;5.32;86.53;96061.84;5022536;28;20203;-88
2024/03/02 00:41:28;;;;;;;32.80;18.10;;;;;;;5.00;85.54;96018.09;5035767;28;20206;-88
2024/03/02 00:44:06;;;;;;;30.03;17.60;;;;;;;5.21;85.02;96061.06;5020143;28;20199;-89
2024/03/02 00:46:37;;;;;;;37.47;19.33;;;;;;;5.22;85.04;96053.94;5015341;28;20215;-88
2024/03/02 00:49:04;;;;;;;36.53;19.53;;;;;;;5.27;84.63;96053.97;5014561;28;20253;-89
2024/03/02 00:51:33;;;;;;;31.17;18.67;;;;;;;5.06;85.45;96048.66;5015519;28;20204;-89
2024/03/02 00:54:03;;;;;;;34.33;17.73;;;;;;;5.02;85.33;96017.81;5015840;28;20203;-87
2024/03/02 00:56:31;;;;;;;32.57;18.27;;;;;;;5.31;84.77;96047.88;5014616;28;20290;-88
2024/03/02 00:58:57;;;;;;;28.93;17.13;;;;;;;5.29;84.49;96043.91;5016209;28;20211;-88
2024/03/02 01:01:25;;;;;;;25.00;15.07;;;;;;;5.31;83.80;96025.97;5016201;28;20607;-88
2024/03/02 01:03:53;;;;;;;22.80;14.53;;;;;;;5.32;83.54;96041.53;4997741;28;20267;-88
2024/03/02 01:06:20;;;;;;;21.93;13.53;;;;;;;5.39;84.21;96038.63;4995631;28;20611;-88
2024/03/02 01:08:50;;;;;;;22.90;13.23;;;;;;;5.19;83.97;95989.31;5010583;28;20207;-88
2024/03/02 01:11:17;;;;;;;23.27;13.63;;;;;;;5.29;83.78;95985.88;5013386;28;20214;-88
2024/03/02 01:13:44;;;;;;;24.13;13.63;;;;;;;5.52;84.30;96040.72;5022148;28;20222;-87
2024/03/02 01:16:11;;;;;;;19.27;12.23;;;;;;;5.47;84.23;96013.56;5017072;28;20697;-87
2024/03/02 01:18:39;;;;;;;18.50;13.10;;;;;;;5.50;83.98;96027.00;5014196;28;20662;-89
2024/03/02 01:21:06;;;;;;;20.07;13.13;;;;;;;5.67;84.13;96041.75;5015400;28;20203;-87
2024/03/02 01:23:33;;;;;;;21.83;13.47;;;;;;;5.72;83.97;96047.78;5014890;28;20210;-87
2024/03/02 01:26:00;;;;;;;18.10;13.07;;;;;;;5.37;84.10;96019.63;5014017;28;20675;-88
2024/03/02 01:28:27;;;;;;;24.37;13.07;;;;;;;5.60;84.02;96032.25;5015536;28;20198;-88
2024/03/02 01:30:54;;;;;;;24.67;14.33;;;;;;;5.62;84.02;96040.72;5014534;28;20203;-88
2024/03/02 01:33:21;;;;;;;26.77;14.40;;;;;;;5.57;84.37;96016.16;5013810;28;20258;-88
2024/03/02 01:35:49;;;;;;;27.67;13.97;;;;;;;5.46;84.81;96027.78;5015016;28;20690;-88
2024/03/02 01:38:16;;;;;;;24.90;13.47;;;;;;;4.86;85.38;95936.06;5014838;28;20210;-87
2024/03/02 01:40:44;;;;;;;26.20;14.33;;;;;;;5.42;84.86;96001.16;5014887;28;20199;-88
2024/03/02 01:43:11;;;;;;;25.47;15.40;;;;;;;5.53;84.45;95996.63;5013383;28;20207;-87
2024/03/02 01:45:38;;;;;;;23.40;14.47;;;;;;;5.51;84.49;95977.66;5013621;28;20199;-88
2024/03/02 01:48:06;;;;;;;25.43;14.60;;;;;;;5.50;83.62;96005.91;5007420;28;20236;-88
2024/03/02 01:50:33;;;;;;;35.90;15.20;;;;;;;5.51;84.65;96004.03;4995351;28;20214;-88
2024/03/02 01:53:02;;;;;;;27.37;15.37;;;;;;;5.73;84.57;96008.97;4994916;28;20196;-88
2024/03/02 01:55:30;;;;;;;29.87;15.73;;;;;;;5.68;84.69;96024.84;4994842;28;20310;-88
2024/03/02 01:57:57;;;;;;;28.33;16.10;;;;;;;5.47;85.29;96022.25;4994439;28;20235;-88
2024/03/02 02:00:26;;;;;;;30.60;15.33;;;;;;;5.39;85.51;96013.03;4994666;28;20200;-88
2024/03/02 02:02:53;;;;;;;27.23;16.50;;;;;;;5.44;85.89;96032.56;4995600;28;20283;-88
2024/03/02 02:05:20;;;;;;;33.17;16.63;;;;;;;5.38;86.01;96022.00;5005972;28;20199;-87
2024/03/02 02:07:47;;;;;;;33.47;16.67;;;;;;;5.50;85.74;96011.19;5013778;28;20200;-88
2024/03/02 02:10:15;;;;;;;29.73;16.47;;;;;;;5.39;85.35;96025.44;5014452;28;20207;-87
2024/03/02 02:12:42;;;;;;;40.33;19.37;;;;;;;5.47;85.22;95997.72;5014497;28;20211;-88
2024/03/02 02:15:29;;;;;;;41.63;20.60;;;;;;;5.78;84.26;96019.53;5013298;28;20241;-88
2024/03/02 02:17:56;;;;;;;32.70;18.60;;;;;;;5.52;84.43;95995.84;5013904;28;20211;-88
2024/03/02 02:20:25;;;;;;;36.40;17.53;;;;;;;5.29;84.73;95975.31;5013247;28;20200;-88
2024/03/02 02:22:58;;;;;;;38.23;19.17;;;;;;;5.18;85.19;95969.25;5013956;28;20696;-87
2024/03/02 02:25:26;;;;;;;36.40;20.27;;;;;;;5.50;85.60;96019.09;5013737;28;20227;-87
2024/03/02 02:27:52;;;;;;;40.07;19.40;;;;;;;5.43;85.81;95991.41;5013514;28;20248;-87
2024/03/02 02:30:21;;;;;;;37.93;20.60;;;;;;;5.55;85.37;96011.16;5013709;28;20214;-87
2024/03/02 02:32:48;;;;;;;37.57;20.03;;;;;;;5.12;85.74;95965.06;5006793;28;20729;-87
2024/03/02 02:35:15;;;;;;;43.70;20.60;;;;;;;5.44;86.23;96011.44;4994224;28;20227;-87
2024/03/02 02:37:42;;;;;;;44.57;21.77;;;;;;;5.49;85.70;96017.50;5005911;28;20210;-87
2024/03/02 02:40:12;;;;;;;40.87;19.97;;;;;;;5.24;85.77;95970.06;5012622;28;20215;-87
2024/03/02 02:42:39;;;;;;;46.70;26.87;;;;;;;5.61;85.39;96028.56;5013424;28;20254;-88
2024/03/02 02:45:06;;;;;;;38.40;19.20;;;;;;;5.58;85.30;96039.66;5012876;28;20200;-88
2024/03/02 02:47:35;;;;;;;54.40;17.23;;;;;;;5.36;86.29;96015.41;5012788;28;20199;-88
2024/03/02 02:50:03;;;;;;;33.67;16.93;;;;;;;5.22;85.58;95980.84;5013336;28;20203;-87
2024/03/02 02:52:35;;;;;;;42.37;19.17;;;;;;;5.53;85.89;96023.81;5014176;28;20227;-89
2024/03/02 02:55:02;;;;;;;44.90;17.67;;;;;;;5.60;85.65;96021.69;5013568;28;20223;-88
2024/03/02 02:57:34;;;;;;;31.20;17.73;;;;;;;5.74;85.14;96027.22;5013354;28;20243;-88
2024/03/02 03:00:04;;;;;;;46.63;18.80;;;;;;;5.75;85.00;96028.78;5012630;28;20231;-88
2024/03/02 03:02:30;;;;;;;31.43;17.60;;;;;;;5.30;84.98;95984.81;5013274;28;20207;-88
2024/03/02 03:04:57;;;;;;;33.70;18.37;;;;;;;5.66;85.24;96027.75;5013551;28;20281;-88
2024/03/02 03:07:24;;;;;;;37.37;20.00;;;;;;;5.74;85.54;96029.06;5012927;28;20199;-88
2024/03/02 03:09:51;;;;;;;34.00;18.37;;;;;;;5.76;85.68;96025.06;5013541;28;20338;-88
2024/03/02 03:12:17;;;;;;;33.43;17.73;;;;;;;5.61;85.43;96009.28;5012582;28;20211;-87
2024/03/02 03:14:46;;;;;;;33.03;16.70;;;;;;;5.48;85.84;96009.84;5009616;28;20218;-87
2024/03/02 03:17:13;;;;;;;35.10;16.30;;;;;;;5.54;86.43;96014.06;5015573;28;20196;-88
2024/03/02 03:19:40;;;;;;;33.00;17.50;;;;;;;5.68;85.75;96024.84;5011864;28;20204;-87
2024/03/02 03:22:07;;;;;;;26.77;16.50;;;;;;;5.73;85.65;96017.72;5012723;28;20249;-87
2024/03/02 03:24:33;;;;;;;31.70;16.70;;;;;;;5.37;85.19;95987.97;5013040;28;20265;-88
2024/03/02 03:27:00;;;;;;;32.93;18.03;;;;;;;5.02;86.41;95965.84;5008622;28;20771;-88
2024/03/02 03:29:27;;;;;;;25.13;15.27;;;;;;;5.47;86.91;96030.19;5000140;28;20261;-87
2024/03/02 03:31:55;;;;;;;30.03;15.83;;;;;;;5.57;86.83;96016.16;5012614;28;20254;-88
2024/03/02 03:34:24;;;;;;;33.03;17.00;;;;;;;5.38;86.11;95993.00;4993080;28;20197;-88
2024/03/02 03:36:51;;;;;;;37.33;17.27;;;;;;;5.24;86.85;95985.88;5007343;28;20226;-88
2024/03/02 03:39:18;;;;;;;28.33;16.67;;;;;;;5.46;86.60;96010.13;5032274;28;20199;-88
2024/03/02 03:41:45;;;;;;;29.83;16.27;;;;;;;5.51;86.25;96018.03;5032571;28;20631;-88
2024/03/02 03:44:12;;;;;;;25.30;15.73;;;;;;;5.45;86.21;96005.09;5031370;28;20202;-87
2024/03/02 03:46:38;;;;;;;27.80;17.00;;;;;;;5.39;86.10;95999.06;5019695;28;20253;-88
2024/03/02 03:49:07;;;;;;;28.23;16.47;;;;;;;5.61;85.73;96009.28;5011214;28;20666;-88
2024/03/02 03:51:35;;;;;;;34.40;16.37;;;;;;;5.05;85.39;95948.72;5012761;28;20226;-88
2024/03/02 03:54:02;;;;;;;30.20;18.23;;;;;;;5.38;86.51;96002.72;5012219;28;20210;-88
2024/03/02 03:56:28;;;;;;;28.10;16.70;;;;;;;5.53;85.75;96018.53;5012373;28;20725;-87
2024/03/02 03:58:55;;;;;;;27.57;16.20;;;;;;;5.49;85.90;95998.22;5012641;28;20206;-87
2024/03/02 04:01:23;;;;;;;34.63;17.93;;;;;;;5.68;85.44;96016.91;5011845;28;20203;-88
2024/03/02 04:03:49;;;;;;;29.27;15.50;;;;;;;5.17;85.60;95951.06;5012456;28;20231;-88
2024/03/02 04:06:18;;;;;;;35.90;17.87;;;;;;;5.33;86.11;95973.72;5011730;28;20257;-87
2024/03/02 04:08:45;;;;;;;38.70;17.20;;;;;;;5.30;85.82;95953.13;5031613;28;20261;-87
2024/03/02 04:11:11;;;;;;;35.07;16.80;;;;;;;5.47;86.48;96009.06;5032704;28;20206;-91
2024/03/02 04:13:38;;;;;;;34.13;17.23;;;;;;;5.31;87.05;96008.31;5019598;28;20230;-91
2024/03/02 04:16:05;;;;;;;34.47;18.07;;;;;;;5.32;87.24;95995.91;5005281;28;20235;-90
2024/03/02 04:18:33;;;;;;;41.97;18.30;;;;;;;5.21;87.70;95984.56;4995515;28;20276;-92
2024/03/02 04:21:00;;;;;;;41.63;20.90;;;;;;;5.31;88.06;96015.44;5012800;28;20231;-92
2024/03/02 04:23:28;;;;;;;60.30;20.70;;;;;;;5.12;89.09;96010.69;5012011;28;20215;-92
2024/03/02 04:25:55;;;;;;;40.27;18.57;;;;;;;5.08;88.93;95999.09;5012920;28;20307;-89
2024/03/02 04:28:22;;;;;;;41.97;19.50;;;;;;;5.06;88.92;95984.56;5012545;28;20210;-91
2024/03/02 04:30:48;;;;;;;56.67;19.13;;;;;;;5.29;89.15;96005.13;5012670;28;20226;-90
2024/03/02 04:33:15;;;;;;;85.20;23.23;;;;;;;5.28;88.88;96008.81;4994637;28;20199;-92
2024/03/02 04:35:42;;;;;;;37.23;18.30;;;;;;;4.98;88.76;95977.19;4993782;28;20224;-91
2024/03/02 04:38:09;;;;;;;47.83;18.50;;;;;;;5.44;88.94;96003.53;4993816;28;20200;-92
2024/03/02 04:40:37;;;;;;;45.53;18.60;;;;;;;5.67;87.21;96023.28;4993608;28;20204;-91
2024/03/02 04:43:04;;;;;;;47.97;19.30;;;;;;;5.35;86.28;95995.38;5000122;28;20203;-92
2024/03/02 04:45:31;;;;;;;42.57;20.70;;;;;;;5.15;87.11;95938.94;5012693;28;20768;-93
2024/03/02 04:47:58;;;;;;;43.33;22.67;;;;;;;5.15;86.16;95949.50;5012418;28;20199;-91
2024/03/02 04:50:24;;;;;;;51.63;26.07;;;;;;;5.42;86.67;96017.00;5012907;28;20277;-91
2024/03/02 04:52:51;;;;;;;40.40;20.10;;;;;;;5.46;87.84;95983.72;5012601;28;20203;-90
2024/03/02 04:55:35;;;;;;;40.60;20.60;;;;;;;5.53;86.46;96012.47;5011416;28;20222;-87
2024/03/02 04:58:03;;;;;;;39.43;19.00;;;;;;;5.55;87.28;96008.50;5021337;28;20209;-87
2024/03/02 05:00:30;;;;;;;43.00;22.13;;;;;;;5.20;87.15;95937.34;5031536;28;20205;-88
2024/03/02 05:02:56;;;;;;;47.87;24.43;;;;;;;5.42;86.45;95989.78;5035542;28;20203;-87
2024/03/02 05:05:23;;;;;;;32.70;19.73;;;;;;;5.61;86.95;96004.00;5034637;28;20688;-88
2024/03/02 05:07:50;;;;;;;37.83;19.30;;;;;;;5.37;87.34;95998.50;5035118;28;20203;-87
2024/03/02 05:10:17;;;;;;;43.50;19.53;;;;;;;5.41;87.53;96012.75;5023449;28;20210;-86
2024/03/02 05:12:59;;;;;;;38.77;19.80;;;;;;;5.20;88.30;95967.16;5014927;28;20211;-87
2024/03/02 05:15:27;;;;;;;36.43;18.13;;;;;;;5.23;88.15;95993.00;5013311;28;20230;-87
2024/03/02 05:17:54;;;;;;;38.77;19.73;;;;;;;5.43;87.84;96018.56;5014329;28;20257;-87
2024/03/02 05:20:20;;;;;;;35.60;18.93;;;;;;;5.05;87.74;95951.34;5014781;28;20230;-87
2024/03/02 05:22:48;;;;;;;38.30;20.27;;;;;;;5.42;87.66;96011.72;5014563;28;20203;-87
2024/03/02 05:25:15;;;;;;;39.13;20.47;;;;;;;5.32;87.56;95998.53;5014850;28;20277;-86
2024/03/02 05:27:42;;;;;;;44.97;20.87;;;;;;;5.76;87.50;96017.16;5021416;28;20328;-86
2024/03/02 05:30:10;;;;;;;51.53;25.03;;;;;;;5.40;87.14;95985.56;5034126;28;20593;-87
2024/03/02 05:32:39;;;;;;;127.63;82.00;;;;;;;5.41;87.47;95973.16;5032913;28;20199;-87
2024/03/02 05:35:07;;;;;;;63.37;36.07;;;;;;;5.76;86.74;96022.44;5001939;28;20204;-88
2024/03/02 05:37:34;;;;;;;66.37;31.23;;;;;;;5.69;86.11;96019.28;4998078;28;20259;-89
2024/03/02 05:40:01;;;;;;;48.53;22.60;;;;;;;5.80;86.44;96020.06;5022568;28;20614;-89
2024/03/02 05:42:28;;;;;;;42.67;21.67;;;;;;;5.32;85.87;95962.38;5015537;28;20641;-89
2024/03/02 05:44:55;;;;;;;45.73;22.83;;;;;;;5.77;86.41;96018.75;5015026;28;20199;-89
2024/03/02 05:47:22;;;;;;;42.30;20.53;;;;;;;5.63;86.66;96000.03;5021449;28;20265;-89
2024/03/02 05:49:50;;;;;;;39.83;22.33;;;;;;;5.47;86.94;95966.03;5015223;28;20195;-89
2024/03/02 05:52:17;;;;;;;51.53;20.00;;;;;;;5.76;86.28;95997.88;5015729;28;20238;-90
2024/03/02 05:54:43;;;;;;;45.30;21.17;;;;;;;5.62;87.02;95995.03;5015533;28;20207;-89
2024/03/02 05:57:33;;;;;;;51.43;22.57;;;;;;;5.89;86.78;96023.75;5015162;28;20219;-89
2024/03/02 06:00:00;;;;;;;84.53;35.97;;;;;;;5.85;86.92;96017.41;5015195;28;20200;-89
2024/03/02 06:02:27;;;;;;;51.70;25.43;;;;;;;5.81;86.92;96025.09;5014990;28;20195;-89
2024/03/02 06:04:59;;;;;;;50.97;22.77;;;;;;;5.91;87.34;96037.44;5015137;28;20207;-87
2024/03/02 06:07:26;;;;;;;46.60;20.77;;;;;;;5.62;86.93;95977.34;5014621;28;20207;-89
2024/03/02 06:09:53;;;;;;;45.23;23.43;;;;;;;5.75;86.87;96009.50;5013659;28;20210;-89
2024/03/02 06:12:20;;;;;;;55.63;26.07;;;;;;;5.88;87.23;96008.94;5014198;28;20262;-89
2024/03/02 06:14:46;;;;;;;38.77;21.07;;;;;;;5.82;87.21;96002.09;5015097;28;20206;-89
2024/03/02 06:17:13;;;;;;;42.73;20.47;;;;;;;5.37;87.60;95927.25;5014115;28;20314;-89
2024/03/02 06:19:42;;;;;;;48.93;25.17;;;;;;;5.60;87.30;95960.97;5013335;28;20207;-89
2024/03/02 06:22:10;;;;;;;52.30;23.13;;;;;;;5.86;88.01;96019.00;5014010;28;20203;-88
2024/03/02 06:24:37;;;;;;;42.33;21.93;;;;;;;5.39;87.97;95941.00;5014676;28;20199;-89
2024/03/02 06:27:05;;;;;;;46.33;22.67;;;;;;;5.88;88.42;96027.41;5014517;28;20219;-89
2024/03/02 06:29:33;;;;;;;45.10;21.83;;;;;;;6.04;87.84;96030.81;5014599;28;20563;-89
2024/03/02 06:32:00;;;;;;;44.60;21.87;;;;;;;5.94;87.44;96018.47;5013279;28;20203;-88
2024/03/02 06:34:28;;;;;;;46.43;20.60;;;;;;;5.80;87.75;96015.56;5013268;28;20203;-88
2024/03/02 06:36:54;;;;;;;45.60;22.63;;;;;;;5.93;88.76;96039.88;5013852;28;20237;-88
2024/03/02 06:39:22;;;;;;;50.50;21.17;;;;;;;5.54;87.93;95987.69;5030952;28;20249;-89
2024/03/02 06:41:49;;;;;;;46.17;24.70;;;;;;;5.21;88.77;95936.28;5028000;28;20579;-88
2024/03/02 06:44:16;;;;;;;46.53;20.67;;;;;;;5.99;89.21;96038.78;5013292;28;20199;-88
2024/03/02 06:46:43;;;;;;;41.93;20.57;;;;;;;5.92;88.20;96014.47;5010938;28;20200;-88
2024/03/02 06:49:10;;;;;;;38.63;18.10;;;;;;;6.09;88.26;96036.09;4992904;28;20208;-88
2024/03/02 06:51:37;;;;;;;29.23;17.13;;;;;;;6.12;87.89;96031.06;4994553;28;20254;-88
2024/03/02 06:54:04;;;;;;;36.93;17.87;;;;;;;5.95;87.61;96006.03;4999950;28;20646;-88
2024/03/02 06:56:32;;;;;;;38.53;18.00;;;;;;;5.86;87.44;95959.03;5013539;28;20274;-88
2024/03/02 06:58:59;;;;;;;36.30;18.60;;;;;;;6.13;87.35;95973.72;5013609;28;20235;-88
2024/03/02 07:01:27;;;;;;;38.70;18.63;;;;;;;5.85;87.94;95930.25;5012346;28;20199;-88
2024/03/02 07:03:54;;;;;;;32.87;18.13;;;;;;;6.18;87.46;95991.41;5013780;28;20207;-88
2024/03/02 07:06:21;;;;;;;29.17;16.37;;;;;;;6.26;87.26;95996.91;5027684;28;20202;-88
2024/03/02 07:08:48;;;;;;;30.93;17.97;;;;;;;5.98;87.53;95966.66;5013692;28;20199;-89
2024/03/02 07:11:15;;;;;;;37.00;21.17;;;;;;;6.20;88.06;96027.06;4995103;28;20207;-89
2024/03/02 07:13:43;;;;;;;30.97;19.17;;;;;;;6.16;87.86;96025.22;4994032;28;20212;-90
2024/03/02 07:16:29;;;;;;;27.30;16.77;;;;;;;5.76;87.38;95947.72;4992784;28;20201;-86
2024/03/02 07:18:56;;;;;;;31.67;21.07;;;;;;;6.32;86.92;96027.53;4992828;28;20208;-85
2024/03/02 07:21:26;;;;;;;30.40;15.93;;;;;;;6.45;86.62;96034.06;4992817;28;20215;-86
2024/03/02 07:23:52;;;;;;;24.13;15.33;;;;;;;6.29;86.59;96001.66;4992663;28;20218;-86
2024/03/02 07:26:20;;;;;;;28.13;16.97;;;;;;;6.13;86.79;95971.88;5031965;28;20280;-86
2024/03/02 07:28:49;;;;;;;25.63;15.73;;;;;;;6.48;86.88;96038.81;5015322;28;20249;-90
2024/03/02 07:31:16;;;;;;;28.37;16.47;;;;;;;6.45;87.03;96010.28;5011717;28;20630;-88
2024/03/02 07:33:45;;;;;;;26.27;16.63;;;;;;;6.28;86.65;95964.94;5012315;28;20261;-87
2024/03/02 07:36:12;;;;;;;27.53;15.77;;;;;;;6.54;86.10;96000.72;5011414;28;20200;-90
2024/03/02 07:38:40;;;;;;;27.03;16.03;;;;;;;6.21;86.76;95967.88;5010558;28;20623;-89
2024/03/02 07:41:07;;;;;;;28.30;16.67;;;;;;;6.58;86.33;96007.03;5001900;28;20724;-88
2024/03/02 07:43:34;;;;;;;27.07;17.00;;;;;;;6.44;86.07;95998.13;5003186;28;20192;-89
2024/03/02 07:46:03;;;;;;;30.07;16.80;;;;;;;6.35;85.73;95995.28;4999468;28;20199;-88
2024/03/02 07:48:30;;;;;;;28.80;17.20;;;;;;;6.67;85.80;96017.03;5001444;28;20709;-88
2024/03/02 07:50:57;;;;;;;25.93;15.27;;;;;;;6.69;85.59;96030.75;5011660;28;20671;-89
2024/03/02 07:53:24;;;;;;;27.93;18.30;;;;;;;6.90;84.44;96052.59;5012449;28;20206;-88
2024/03/02 07:55:51;;;;;;;27.37;18.07;;;;;;;6.69;84.51;96014.88;5011655;28;20273;-89
2024/03/02 07:58:19;;;;;;;23.83;17.23;;;;;;;6.66;83.73;96024.19;5003531;28;20224;-88
2024/03/02 08:00:46;;;;;;;31.90;18.43;;;;;;;6.94;83.75;96065.00;5024644;28;20290;-88
2024/03/02 08:03:14;;;;;;;27.37;17.63;;;;;;;6.83;84.01;96044.97;5003266;28;20204;-88
2024/03/02 08:05:41;;;;;;;27.13;16.93;;;;;;;6.72;84.38;95993.97;5010712;28;20203;-88
2024/03/02 08:08:08;;;;;;;41.07;23.00;;;;;;;6.79;83.98;95989.16;5010851;28;20203;-88
2024/03/02 08:10:38;;;;;;;27.33;17.20;;;;;;;7.20;82.96;96064.78;5011162;28;20194;-88
2024/03/02 08:13:05;;;;;;;31.73;18.13;;;;;;;7.14;82.51;96036.78;5016784;28;20199;-88
2024/03/02 08:15:31;;;;;;;25.17;15.93;;;;;;;7.26;82.37;96058.41;5011774;28;20206;-88
2024/03/02 08:17:58;;;;;;;28.03;18.20;;;;;;;7.33;82.57;96061.53;5023257;28;20229;-87
2024/03/02 08:20:27;;;;;;;27.53;16.20;;;;;;;7.19;82.61;96034.09;5026058;28;20206;-86
2024/03/02 08:22:55;;;;;;;26.77;15.73;;;;;;;6.33;83.82;95946.41;5011886;28;20696;-88
2024/03/02 08:25:22;;;;;;;26.53;16.30;;;;;;;6.94;84.44;96030.59;5012125;28;20258;-88
2024/03/02 08:27:49;;;;;;;24.47;14.60;;;;;;;7.06;83.66;96046.13;5011670;28;20210;-87
2024/03/02 08:30:16;;;;;;;24.47;15.57;;;;;;;6.95;84.06;96045.41;5011265;28;20196;-87
2024/03/02 08:32:43;;;;;;;25.03;15.77;;;;;;;7.06;83.65;96024.94;5011762;28;20210;-88
2024/03/02 08:35:09;;;;;;;23.00;15.40;;;;;;;7.22;82.97;96026.41;5011198;28;20203;-88
2024/03/02 08:37:40;;;;;;;27.20;17.07;;;;;;;6.94;82.66;95985.63;5015357;28;20223;-88
2024/03/02 08:40:09;;;;;;;27.50;16.00;;;;;;;7.34;82.38;96037.41;5031674;28;20199;-88
2024/03/02 08:42:36;;;;;;;23.30;15.43;;;;;;;7.45;81.96;96018.78;5005332;28;20216;-87
2024/03/02 08:45:03;;;;;;;27.03;18.47;;;;;;;7.02;81.34;95968.38;5009057;28;20203;-87
2024/03/02 08:47:30;;;;;;;29.20;18.33;;;;;;;7.59;81.75;96039.03;4998113;28;20198;-87
2024/03/02 08:49:56;;;;;;;26.20;17.47;;;;;;;7.65;80.67;96028.38;5027140;28;20666;-88
2024/03/02 08:52:23;;;;;;;22.90;15.80;;;;;;;7.38;80.99;96000.56;5015450;28;20195;-88
2024/03/02 08:54:51;;;;;;;24.30;16.03;;;;;;;7.72;80.60;96034.94;5015465;28;20349;-87
2024/03/02 08:57:18;;;;;;;27.10;17.53;;;;;;;7.77;80.76;96036.72;5014390;28;20694;-87
2024/03/02 08:59:45;;;;;;;21.80;16.30;;;;;;;7.81;80.41;96027.94;5015120;28;20199;-86
2024/03/02 09:02:12;;;;;;;24.97;16.63;;;;;;;7.73;80.75;96028.56;5013586;28;20210;-86
2024/03/02 09:04:41;;;;;;;26.07;18.87;;;;;;;7.52;80.29;95980.31;5013155;28;20828;-84
2024/03/02 09:07:08;;;;;;;33.87;20.37;;;;;;;7.42;80.58;95983.06;5013759;28;20686;-88
2024/03/02 09:09:35;;;;;;;28.17;18.60;;;;;;;7.40;80.75;95979.13;5014221;28;20285;-87
2024/03/02 09:12:03;;;;;;;30.47;18.23;;;;;;;7.67;80.36;96021.75;5018154;28;20295;-87
2024/03/02 09:14:30;;;;;;;32.03;20.83;;;;;;;7.58;80.85;96034.78;5014193;28;20211;-88
2024/03/02 09:16:57;;;;;;;29.40;18.70;;;;;;;7.63;81.14;96041.91;5013918;28;20230;-88
2024/03/02 09:19:24;;;;;;;24.97;16.40;;;;;;;7.55;80.65;96030.06;5026152;28;20202;-88
2024/03/02 09:21:51;;;;;;;31.50;20.67;;;;;;;7.59;80.09;95969.41;5014901;28;20204;-87
2024/03/02 09:24:18;;;;;;;26.13;15.87;;;;;;;7.98;79.89;96010.81;5014419;28;20227;-87
2024/03/02 09:26:44;;;;;;;30.93;17.73;;;;;;;7.95;79.77;95998.91;5015249;28;20296;-88
2024/03/02 09:29:13;;;;;;;31.07;18.53;;;;;;;8.09;79.26;96014.91;5013763;28;20207;-87
2024/03/02 09:31:44;;;;;;;28.13;16.80;;;;;;;8.28;79.16;96020.22;5014809;28;20207;-87
2024/03/02 09:34:10;;;;;;;30.90;17.67;;;;;;;8.35;78.67;96025.97;5012958;28;20704;-85
2024/03/02 09:36:37;;;;;;;28.10;17.90;;;;;;;8.41;78.56;96016.91;5013759;28;20198;-85
2024/03/02 09:39:04;;;;;;;34.10;20.23;;;;;;;8.21;78.38;95995.94;5006663;28;20232;-85
2024/03/02 09:41:31;;;;;;;36.97;22.53;;;;;;;8.30;79.06;95992.38;5004285;28;20227;-87
2024/03/02 09:43:58;;;;;;;38.03;20.00;;;;;;;8.55;78.42;96015.13;5014178;28;20203;-87
2024/03/02 09:46:27;;;;;;;39.53;22.23;;;;;;;8.37;77.48;96001.84;4995394;28;20247;-88
2024/03/02 09:48:54;;;;;;;32.30;20.23;;;;;;;8.49;76.81;95988.97;5004640;28;20207;-88
2024/03/02 09:51:21;;;;;;;38.73;21.43;;;;;;;8.78;76.62;96021.44;5013952;28;20199;-89
2024/03/02 09:53:48;;;;;;;30.00;17.73;;;;;;;8.98;75.71;96022.19;5013961;28;20206;-89
2024/03/02 09:56:15;;;;;;;26.97;18.37;;;;;;;9.08;75.74;96022.03;5013884;28;20235;-88
2024/03/02 09:58:43;;;;;;;21.20;16.17;;;;;;;9.16;75.48;96018.72;5013635;28;20705;-86
2024/03/02 10:01:11;;;;;;;24.43;17.77;;;;;;;9.00;75.84;96007.56;5003901;28;20279;-87
2024/03/02 10:03:40;;;;;;;23.50;16.20;;;;;;;8.95;76.70;96015.63;5006895;28;20262;-87
2024/03/02 10:06:24;;;;;;;20.80;15.33;;;;;;;8.88;75.70;96015.19;5027051;28;20616;-89
2024/03/02 10:08:51;;;;;;;21.13;14.93;;;;;;;9.00;76.13;96020.06;5001726;28;20196;-87
2024/03/02 10:11:29;;;;;;;20.30;14.90;;;;;;;8.92;76.40;96018.84;4994657;28;20208;-87
2024/03/02 10:14:08;;;;;;;23.30;15.50;;;;;;;8.79;76.10;95990.41;5013398;28;20204;-87
2024/03/02 10:16:38;;;;;;;19.47;14.57;;;;;;;9.02;75.61;96020.53;5014119;28;20234;-89
2024/03/02 10:19:21;;;;;;;21.37;15.70;;;;;;;8.99;75.87;96026.44;5014255;28;20222;-88
2024/03/02 10:21:49;;;;;;;24.33;15.03;;;;;;;8.87;76.28;96031.38;5014185;28;20203;-87
2024/03/02 10:24:16;;;;;;;24.13;15.97;;;;;;;8.81;77.16;96030.69;5013832;28;20195;-88
2024/03/02 10:26:43;;;;;;;24.67;15.43;;;;;;;8.75;76.57;96024.69;5013847;28;20219;-88
2024/03/02 10:29:10;;;;;;;16.17;11.13;;;;;;;8.72;76.56;96019.94;5014436;28;20284;-88
2024/03/02 10:31:38;;;;;;;22.80;16.23;;;;;;;8.51;76.99;95987.59;5012420;28;20218;-88
2024/03/02 10:34:05;;;;;;;19.60;15.03;;;;;;;8.60;76.43;95987.75;5021074;28;20268;-89
2024/03/02 10:36:34;;;;;;;17.20;13.97;;;;;;;8.67;77.14;95990.03;5030446;28;20241;-88
2024/03/02 10:39:03;;;;;;;21.10;15.57;;;;;;;8.91;75.91;96005.88;5014331;28;20219;-87
2024/03/02 10:41:33;;;;;;;26.67;16.33;;;;;;;8.87;75.68;95979.13;5014667;28;20203;-88
2024/03/02 10:44:02;;;;;;;19.87;15.77;;;;;;;9.11;75.02;96002.88;5012283;28;20574;-88
2024/03/02 10:46:30;;;;;;;23.33;16.87;;;;;;;9.26;74.99;96012.47;5013615;28;20211;-87
2024/03/02 10:48:58;;;;;;;22.90;17.10;;;;;;;9.02;74.58;95972.75;5013422;28;20280;-89
2024/03/02 10:51:28;;;;;;;22.43;15.03;;;;;;;8.98;74.77;95996.47;5012656;28;20302;-88
2024/03/02 10:53:57;;;;;;;21.53;16.83;;;;;;;9.19;74.46;95990.81;5013177;28;20205;-88
2024/03/02 10:56:29;;;;;;;19.77;15.80;;;;;;;9.36;73.81;95992.91;5013420;28;20204;-88
2024/03/02 10:59:02;;;;;;;22.53;17.73;;;;;;;9.50;73.49;95988.41;5011431;28;20223;-88
2024/03/02 11:01:32;;;;;;;21.90;15.37;;;;;;;8.98;72.29;95919.50;5012532;28;20200;-88
2024/03/02 11:03:59;;;;;;;18.30;14.03;;;;;;;9.47;71.95;95995.09;5012504;28;20249;-88
2024/03/02 11:06:31;;;;;;;24.07;16.93;;;;;;;9.63;72.42;95986.84;5012409;28;20222;-88
2024/03/02 11:09:05;;;;;;;23.10;16.13;;;;;;;9.84;72.48;95979.28;5013392;28;20777;-87
2024/03/02 11:11:37;;;;;;;22.00;16.23;;;;;;;9.82;71.19;95986.75;5011995;28;20238;-88
2024/03/02 11:14:09;;;;;;;21.37;16.03;;;;;;;9.92;71.06;95983.91;5011918;28;20199;-88
2024/03/02 11:16:37;;;;;;;38.50;28.17;;;;;;;9.96;71.13;95980.38;5012432;28;20299;-87
2024/03/02 11:19:06;;;;;;;23.93;17.60;;;;;;;9.74;71.12;95975.72;5012564;28;20233;-87
2024/03/02 11:21:34;;;;;;;19.20;15.63;;;;;;;9.71;71.12;95960.38;5011519;28;20223;-87
2024/03/02 11:24:35;;;;;;;20.33;16.00;;;;;;;9.71;71.73;95978.97;5012297;28;20227;-87
2024/03/02 11:27:03;;;;;;;18.27;14.90;;;;;;;9.94;71.67;95969.22;5012258;28;20258;-87
2024/03/02 11:29:54;;;;;;;22.00;15.57;;;;;;;10.17;70.09;95962.09;5012933;28;20281;-85
2024/03/02 11:32:23;;;;;;;17.67;14.07;;;;;;;10.29;70.27;95961.63;4996736;28;20662;-85
2024/03/02 11:34:51;;;;;;;21.17;13.80;;;;;;;10.32;69.68;95954.94;5012291;28;20214;-84